Tiempo atmosférico en la estación meteorológica de Tarragona, Tarragona (60 m.)



Fecha
DESCASC
Temp. máxima en grados centígrados (hora)
DESCASC
Temp. mínima en grados centígrados (hora)
DESCASC
Temp. media en grados centígrados
DESCASC
Racha de viento máxima en m/sg (hora)
DESCASC
Velocidad máxima media en intervalos de 10 minutos(hora)
DESCASC
Precipitaciones diarias en mm
DESCASC
Precipitaciones de 00:00 a 06:00 en mm
DESCASC
Precipitaciones de 06:00 a 12:00 en mm
DESCASC
Precipitaciones de 12:00 a 18:00 en mm
DESCASC
Precipitaciones de 18:00 a 24:00 en mm
DESCASC
18-08-2019 30.2 (14:20) 24.3 (01:30) 27.3 -- (--) -- (--) 0 0 0 0 0
17-08-2019 29.5 (15:10) 23.3 (06:50) 26.4 -- (--) -- (--) 0 0 0 0 0
16-08-2019 29.3 (17:00) 22.7 (08:00) 26 -- (--) -- (--) 0 0 0 0 0
15-08-2019 29.7 (12:50) 22.3 (00:00) 26 -- (--) -- (--) 0 0 0 0 0
14-08-2019 28.7 (14:40) 17.4 (00:00) 23.1 -- (--) -- (--) 0 0 0 0 0
13-08-2019 30.4 (15:10) 17.6 (00:00) 24 -- (--) -- (--) 0.2 0.2 0 0 0
12-08-2019 31.5 (15:30) 20.1 (00:00) 25.8 -- (--) -- (--) 45 45 0 0 0
11-08-2019 30.7 (12:20) 23.4 (00:00) 27.1 -- (--) -- (--) 0 0 0 0 0
10-08-2019 30 (15:50) 24.6 (00:00) 27.3 -- (--) -- (--) 0 0 0 0 0
09-08-2019 31.3 (13:40) 24 (00:00) 27.6 -- (--) -- (--) 0 0 0 0 0
08-08-2019 30.7 (16:10) 24.6 (00:00) 27.7 -- (--) -- (--) 0 0 0 0 0
07-08-2019 29.9 (13:40) 25 (00:00) 27.4 -- (--) -- (--) 0 0 0 0 0
06-08-2019 29.6 (16:00) 23.6 (00:00) 26.6 -- (--) -- (--) 0 0 0 0 0
05-08-2019 31 (16:00) 22.3 (00:00) 26.6 -- (--) -- (--) 0 0 0 0 0
04-08-2019 29.2 (16:10) 23 (00:00) 26.1 -- (--) -- (--) 0 0 0 0 0
03-08-2019 29.3 (13:20) 20.3 (00:00) 24.8 -- (--) -- (--) 0 0 0 0 0
02-08-2019 31.8 (13:00) 20.4 (00:00) 26.1 -- (--) -- (--) 0 0 0 0 0
01-08-2019 29.4 (15:40) 20.8 (00:00) 25.1 -- (--) -- (--) 0 0 0 0 0
31-07-2019 27.9 (11:00) 21.7 (00:00) 24.8 -- (--) -- (--) 0.4 0.4 0 0 0
30-07-2019 32.4 (13:10) 23.4 (00:00) 27.9 -- (--) -- (--) 0 0 0 0 0
29-07-2019 28.4 (12:50) 19.3 (00:00) 23.8 -- (--) -- (--) 0 0 0 0 0
28-07-2019 33.7 (17:20) 18.7 (00:00) 26.2 -- (--) -- (--) 0 0 0 0 0
27-07-2019 29.3 (14:50) 23.7 (00:00) 26.5 -- (--) -- (--) 0 0 0 0 0
26-07-2019 29.3 (18:00) 23.5 (00:00) 26.4 -- (--) -- (--) 0 0 0 0 0
25-07-2019 29.4 (11:50) 21.6 (00:00) 25.5 -- (--) -- (--) 0 0 0 0 0
24-07-2019 31.4 (12:20) 22.1 (00:00) 26.8 -- (--) -- (--) 0 0 0 0 0
23-07-2019 32.9 (18:10) 22 (00:00) 27.5 -- (--) -- (--) 0 0 0 0 0
22-07-2019 31.3 (17:10) 20.3 (00:00) 25.8 -- (--) -- (--) 0 0 0 0 0
21-07-2019 29.8 (17:00) 21.8 (00:00) 25.8 -- (--) -- (--) 0 0 0 0 0

Gráficas

Temp. máximas Temp. mínimas Temp. medias Precipitaciones Rachas de viento máximas Velocidades máximas media en intervalos de 10 minutos

Datos horarios

Fecha y hora oficial Temperatura (ºC) Velocidad del viento (km/h) Dirección del viento Racha (km/h) Dirección de racha Precipitación (mm) Presión (hPa) Tendencia (hPa) Humedad (%)
2019-08-19 23:00:00 24.5 6 Este 23 Este 0 -- -- 79
2019-08-19 22:00:00 25 5 Este 21 Sudeste 0 -- -- 80
2019-08-19 21:00:00 25.1 9 Este 26 Este 0 -- -- 79
2019-08-19 20:00:00 25.7 11 Este 28 Sudeste 0 -- -- 76
2019-08-19 19:00:00 26.4 13 Sudeste 28 Este 0 -- -- 72
2019-08-19 18:00:00 26.8 14 Sudeste 32 Este 0 -- -- 70
2019-08-19 17:00:00 27.7 15 Sudeste 34 Sudeste 0 -- -- 65
2019-08-19 16:00:00 28.2 18 Sudeste 34 Sudeste 0 -- -- 65
2019-08-19 15:00:00 28.3 19 Sudeste 39 Este 0 -- -- 64
2019-08-19 14:00:00 28.1 16 Este 39 Sudeste 0 -- -- 67
2019-08-19 13:00:00 27.8 19 Sudeste 38 Sudeste 0 -- -- 69
2019-08-19 12:00:00 27.5 17 Sudeste 33 Sudeste 0 -- -- 73
2019-08-19 11:00:00 26.6 14 Este 29 Este 0 -- -- 77
2019-08-19 10:00:00 26.3 9 Sudeste 21 Este 0 -- -- 79
2019-08-19 09:00:00 25.4 4 Nordeste 9 Nordeste 0 -- -- 80
2019-08-19 08:00:00 24.6 4 Norte 10 Norte 0 -- -- 82
2019-08-19 07:00:00 24.3 3 Norte 9 Norte 0 -- -- 83
2019-08-19 06:00:00 24.1 2 Norte 6 Nordeste 0 -- -- 85
2019-08-19 05:00:00 24.3 3 Noroeste 7 Este 0 -- -- 86
2019-08-19 04:00:00 24.7 3 Este 8 Nordeste 0 -- -- 85
2019-08-19 03:00:00 24.7 0 Calma 9 Este 0 -- -- 88
2019-08-19 02:00:00 25.1 2 Este 8 Nordeste 0 -- -- 86
2019-08-19 01:00:00 25.4 2 Este 8 Este 0 -- -- 85
2019-08-19 00:00:00 25.3 0 Calma 6 Este 0 -- -- 85
2019-08-18 23:00:00 25.5 0 Calma 6 Este 0 -- -- 84
2019-08-18 22:00:00 26 0 Calma 10 Sudeste 0 -- -- 82
2019-08-18 21:00:00 26.5 6 Sudeste 13 Sudeste 0 -- -- 78
2019-08-18 20:00:00 27.1 6 Sudeste 15 Sudeste 0 -- -- 80
2019-08-18 19:00:00 27.7 8 Sur 18 Sudeste 0 -- -- 77
2019-08-18 18:00:00 28.8 10 Sur 22 Sudeste 0 -- -- 71
2019-08-18 17:00:00 28.8 11 Sudeste 22 Sudeste 0 -- -- 73
2019-08-18 16:00:00 29.4 10 Sur 23 Sudeste 0 -- -- 71
2019-08-18 15:00:00 29.9 12 Sudeste 23 Sudeste 0 -- -- 70
2019-08-18 14:00:00 29.8 10 Sur 21 Sudoeste 0 -- -- 70
2019-08-18 13:00:00 29.6 10 Sur 22 Sudeste 0 -- -- 71
2019-08-18 12:00:00 29.4 8 Sur 20 Sudeste 0 -- -- 71
2019-08-18 11:00:00 28.5 8 Sudeste 17 Sudeste 0 -- -- 75
2019-08-18 10:00:00 27.8 6 Sudeste 13 Sudeste 0 -- -- 78
2019-08-18 09:00:00 26.7 8 Sudeste 15 Sudeste 0 -- -- 82
2019-08-18 08:00:00 25.7 5 Sudeste 12 Este 0 -- -- 85
2019-08-18 07:00:00 25.6 5 Sudeste 14 Sudeste 0 -- -- 85
2019-08-18 06:00:00 25.5 4 Sur 15 Sudeste 0 -- -- 85
2019-08-18 05:00:00 24.8 4 Este 10 Este 0 -- -- 88
2019-08-18 04:00:00 24.7 4 Este 9 Este 0 -- -- 87
2019-08-18 03:00:00 24.5 3 Este 6 Este 0 -- -- 88
2019-08-18 02:00:00 24.3 3 Este 6 Este 0 -- -- 87
2019-08-18 01:00:00 24.6 0 Calma 6 Sudeste 0 -- -- 86
2019-08-18 00:00:00 25.3 3 Este 8 Este 0 -- -- 83
2019-08-17 23:00:00 25.7 3 Sudeste 8 Este 0 -- -- 81
2019-08-17 22:00:00 26 3 Sur 10 Sudeste 0 -- -- 80
2019-08-17 21:00:00 26.4 5 Sur 15 Sudeste 0 -- -- 79
2019-08-17 20:00:00 26.9 8 Sudeste 19 Sudoeste 0 -- -- 77
2019-08-17 19:00:00 27.6 7 Sur 26 Sudeste 0 -- -- 75
2019-08-17 18:00:00 28.6 10 Sudeste 25 Sudeste 0 -- -- 72
2019-08-17 17:00:00 28.9 11 Sur 25 Sudeste 0 -- -- 69
2019-08-17 16:00:00 29 11 Sur 26 Sudeste 0 -- -- 69
2019-08-17 15:00:00 29.2 9 Sur 27 Sudeste 0 -- -- 66
2019-08-17 14:00:00 28.9 13 Sudeste 26 Sudeste 0 -- -- 68
2019-08-17 13:00:00 28.6 12 Sudeste 21 Sudeste 0 -- -- 69
2019-08-17 12:00:00 28.1 9 Sudeste 20 Sudeste 0 -- -- 72
2019-08-17 11:00:00 27.3 9 Sudeste 15 Sudeste 0 -- -- 76
2019-08-17 10:00:00 26.7 8 Sudeste 13 Sudeste 0 -- -- 80
2019-08-17 09:00:00 25.7 4 Sudeste 9 Sudeste 0 -- -- 85
2019-08-17 08:00:00 23.8 0 Calma 5 Sudeste 0 -- -- 91
2019-08-17 07:00:00 23.3 0 Calma 2 Este 0 -- -- 91
2019-08-17 06:00:00 23.7 0 Calma 4 Norte 0 -- -- 89
2019-08-17 05:00:00 24 0 Calma 3 Noroeste 0 -- -- 88
2019-08-17 04:00:00 24.9 0 Calma 7 Sur 0 -- -- 84
2019-08-17 03:00:00 25.5 4 Sudeste 8 Este 0 -- -- 83
2019-08-17 02:00:00 25.6 3 Sur 10 Oeste 0 -- -- 82
2019-08-17 01:00:00 25.8 4 Sur 12 Sudoeste 0 -- -- 82
2019-08-17 00:00:00 26 5 Sudoeste 13 Sudoeste 0 -- -- 79
2019-08-16 23:00:00 25.9 4 Sudoeste 16 Oeste 0 -- -- 80
2019-08-16 22:00:00 26 7 Sudoeste 21 Sudoeste 0 -- -- 79
2019-08-16 21:00:00 26.3 6 Sudoeste 18 Sudoeste 0 -- -- 76
2019-08-16 20:00:00 26.8 6 Sudoeste 21 Sudoeste 0 -- -- 75
2019-08-16 19:00:00 27.3 11 Sudoeste 22 Sur 0 -- -- 72
2019-08-16 18:00:00 28.3 11 Sudoeste 27 Oeste 0 -- -- 66
2019-08-16 17:00:00 29.3 9 Sudoeste 21 Sudoeste 0 -- -- 62
2019-08-16 16:00:00 28.8 9 Sur 26 Sudoeste 0 -- -- 64
2019-08-16 15:00:00 28.8 11 Sudoeste 23 Sudoeste 0 -- -- 65
2019-08-16 14:00:00 28.9 11 Sudeste 22 Sudeste 0 -- -- 60
2019-08-16 13:00:00 29 10 Sudeste 19 Sudeste 0 -- -- 57
2019-08-16 12:00:00 28.9 9 Sudeste 16 Sudeste 0 -- -- 47
2019-08-16 11:00:00 28.2 5 Sudeste 13 Sudeste 0 -- -- 47
2019-08-16 10:00:00 27 4 Noroeste 9 Noroeste 0 -- -- 51
2019-08-16 09:00:00 25 4 Noroeste 8 Noroeste 0 -- -- 60
2019-08-16 08:00:00 22.7 2 Noroeste 8 Noroeste 0 -- -- 73
2019-08-16 07:00:00 24 3 Norte 7 Norte 0 -- -- 84
2019-08-16 06:00:00 25 3 Noroeste 10 Sudeste 0 -- -- 82
2019-08-16 05:00:00 25.3 4 Sur 11 Sudeste 0 -- -- 80
2019-08-16 04:00:00 25.2 4 Sur 11 Sudeste 0 -- -- 81
2019-08-16 03:00:00 25.4 6 Sudeste 13 Este 0 -- -- 81
2019-08-16 02:00:00 25.6 7 Sudeste 15 Sudeste 0 -- -- 80
2019-08-16 01:00:00 25.8 7 Sudeste 14 Sur 0 -- -- 79
2019-08-16 00:00:00 25.9 6 Sudeste 13 Sudeste 0 -- -- 80
2019-08-15 23:00:00 25.9 8 Sudeste 15 Sudeste 0 -- -- 80
2019-08-15 22:00:00 26.2 5 Sudeste 13 Sudoeste 0 -- -- 79
2019-08-15 21:00:00 26.4 4 Sur 17 Sudoeste 0 -- -- 76
2019-08-15 20:00:00 26.9 8 Sudoeste 23 Sudoeste 0 -- -- 75
2019-08-15 19:00:00 27.7 8 Sudoeste 23 Sudoeste 0 -- -- 71
2019-08-15 18:00:00 28.4 9 Sudoeste 23 Sudoeste 0 -- -- 70
2019-08-15 17:00:00 28.6 10 Sur 23 Sudoeste 0 -- -- 69
2019-08-15 16:00:00 28.1 10 Sur 25 Sudoeste 0 -- -- 71
2019-08-15 15:00:00 28.9 12 Sudoeste 28 Sur 0 -- -- 65
2019-08-15 14:00:00 29.4 9 Sur 23 Sur 0 -- -- 58
2019-08-15 13:00:00 29.6 13 Sudeste 23 Sudoeste 0 -- -- 52
2019-08-15 12:00:00 29 9 Sur 18 Sudeste 0 -- -- 51
2019-08-15 11:00:00 29 4 Norte 13 Noroeste 0 -- -- 50
2019-08-15 10:00:00 27.7 5 Noroeste 15 Noroeste 0 -- -- 53
2019-08-15 09:00:00 25 4 Noroeste 11 Noroeste 0 -- -- 61
2019-08-15 08:00:00 22.3 4 Noroeste 9 Noroeste 0 -- -- 83
2019-08-15 07:00:00 22.7 2 Noroeste 6 Noroeste 0 -- -- 89
2019-08-15 06:00:00 23.6 0 Calma 5 Noroeste 0 -- -- 86
2019-08-15 05:00:00 24.1 2 Noroeste 5 Noroeste 0 -- -- 86
2019-08-15 04:00:00 24.5 2 Noroeste 5 Noroeste 0 -- -- 85
2019-08-15 03:00:00 24.9 3 Sudoeste 7 Sur 0 -- -- 85
2019-08-15 02:00:00 24.8 0 Calma 9 Sudoeste 0 -- -- 83
2019-08-15 01:00:00 24.8 0 Calma 6 Oeste 0 -- -- 83
2019-08-15 00:00:00 25.3 4 Sudoeste 10 Oeste 0 -- -- 80
2019-08-14 23:00:00 25.4 2 Oeste 10 Sudoeste 0 -- -- 78
2019-08-14 22:00:00 25.7 4 Sur 14 Sur 0 -- -- 77
2019-08-14 21:00:00 26 6 Sudoeste 18 Sudoeste 0 -- -- 75
2019-08-14 20:00:00 26.6 6 Sudoeste 17 Oeste 0 -- -- 73
2019-08-14 19:00:00 27.2 7 Sur 20 Sudeste 0 -- -- 71
2019-08-14 18:00:00 28.3 8 Sudoeste 24 Sudoeste 0 -- -- 67
2019-08-14 17:00:00 28.1 11 Sudeste 23 Sur 0 -- -- 64
2019-08-14 16:00:00 28.2 10 Sudoeste 27 Sudeste 0 -- -- 60
2019-08-14 15:00:00 28.5 15 Sudoeste 25 Sudoeste 0 -- -- 52
2019-08-14 14:00:00 28.1 12 Sudeste 20 Sudeste 0 -- -- 42
2019-08-14 13:00:00 27.9 9 Sudeste 16 Sudeste 0 -- -- 37
2019-08-14 12:00:00 26.6 10 Sudeste 15 Sudeste 0 -- -- 45
2019-08-14 11:00:00 25.9 4 Oeste 10 Sudoeste 0 -- -- 41
2019-08-14 10:00:00 24.1 4 Noroeste 9 Noroeste 0 -- -- 46
2019-08-14 09:00:00 21.2 3 Noroeste 14 Noroeste 0 -- -- 54
2019-08-14 08:00:00 18 6 Norte 14 Norte 0 -- -- 61
2019-08-14 07:00:00 17.4 0 Calma 5 Este 0 -- -- 69
2019-08-14 06:00:00 17.8 0 Calma 6 Noroeste 0 -- -- 71
2019-08-14 05:00:00 17.5 3 Noroeste 9 Noroeste 0 -- -- 79
2019-08-14 04:00:00 18.4 5 Noroeste 11 Noroeste 0 -- -- 80
2019-08-14 03:00:00 18.7 3 Noroeste 12 Noroeste 0 -- -- 78
2019-08-14 02:00:00 19.6 3 Noroeste 11 Noroeste 0 -- -- 81
2019-08-14 01:00:00 21 3 Noroeste 9 Noroeste 0 -- -- 78
2019-08-14 00:00:00 22.8 2 Noroeste 14 Sudoeste 0 -- -- 76
2019-08-13 23:00:00 23.8 5 Oeste 22 Oeste 0 -- -- 73
2019-08-13 22:00:00 24.1 7 Oeste 18 Oeste 0 -- -- 70
2019-08-13 21:00:00 24.5 7 Oeste 29 Oeste 0 -- -- 68
2019-08-13 20:00:00 25.2 9 Oeste 32 Oeste 0 -- -- 64
2019-08-13 19:00:00 25.9 13 Sudoeste 41 Sudoeste 0 -- -- 56
2019-08-13 18:00:00 26.9 14 Sudoeste 33 Sudoeste 0 -- -- 50
2019-08-13 17:00:00 28 14 Sudoeste 33 Sudoeste 0 -- -- 46
2019-08-13 16:00:00 28.3 13 Sudoeste 27 Sudoeste 0 -- -- 41
2019-08-13 15:00:00 30.3 8 Oeste 24 Sudoeste 0 -- -- 34
2019-08-13 14:00:00 28.7 9 Sudoeste 25 Sur 0 -- -- 36
2019-08-13 13:00:00 29 8 Oeste 18 Noroeste 0 -- -- 34
2019-08-13 12:00:00 26.6 4 Sur 11 Noroeste 0 -- -- 37
2019-08-13 11:00:00 24.4 5 Oeste 14 Nordeste 0 -- -- 44
2019-08-13 10:00:00 21.9 7 Noroeste 14 Noroeste 0 -- -- 52
2019-08-13 09:00:00 20.3 6 Noroeste 14 Noroeste 0 -- -- 58
2019-08-13 08:00:00 18.3 4 Norte 9 Nordeste 0 -- -- 62
2019-08-13 07:00:00 17.8 0 Calma 6 Norte 0 -- -- 64
2019-08-13 06:00:00 17.9 2 Noroeste 8 Noroeste 0 -- -- 65
2019-08-13 05:00:00 18.9 0 Calma 18 Noroeste 0 -- -- 64
2019-08-13 04:00:00 20 6 Noroeste 21 Noroeste 0 -- -- 57
2019-08-13 03:00:00 20.4 7 Noroeste 16 Noroeste 0 -- -- 55
2019-08-13 02:00:00 20.4 7 Noroeste 14 Noroeste 0 -- -- 56
2019-08-13 01:00:00 21 3 Noroeste 13 Noroeste 0.2 -- -- 61
2019-08-13 00:00:00 25 4 Este 14 Sudeste 0 -- -- 65
2019-08-12 23:00:00 24.9 8 Sudeste 18 Este 0 -- -- 67
2019-08-12 22:00:00 25.4 8 Sudeste 19 Este 0 -- -- 67
2019-08-12 21:00:00 25.7 10 Sudeste 22 Sudeste 0 -- -- 67
2019-08-12 20:00:00 26.4 11 Sudeste 22 Este 0 -- -- 62
2019-08-12 19:00:00 27.4 9 Sudeste 24 Sudeste 0 -- -- 55
2019-08-12 18:00:00 28.3 12 Sudeste 27 Sur 0 -- -- 50
2019-08-12 17:00:00 29 13 Sudeste 24 Sudeste 0 -- -- 45
2019-08-12 16:00:00 29.8 12 Sudeste 28 Sudeste 0 -- -- 42
2019-08-12 15:00:00 30.6 7 Oeste 16 Oeste 0 -- -- 36
2019-08-12 14:00:00 29.3 5 Noroeste 19 Oeste 0 -- -- 39
2019-08-12 13:00:00 27.4 4 Oeste 13 Noroeste 0 -- -- 44
2019-08-12 12:00:00 25.9 3 Oeste 15 Norte 0 -- -- 52
2019-08-12 11:00:00 24.3 6 Noroeste 17 Noroeste 0 -- -- 59
2019-08-12 10:00:00 22.7 8 Noroeste 17 Noroeste 0 -- -- 65
2019-08-12 09:00:00 20.9 5 Noroeste 13 Noroeste 0 -- -- 78
2019-08-12 08:00:00 20.1 5 Noroeste 11 Noroeste 0 -- -- 85
2019-08-12 07:00:00 22.1 0 Calma 6 Norte 0 -- -- 95
2019-08-12 06:00:00 21.9 0 Calma 5 Norte 0 -- -- 95
2019-08-12 05:00:00 21.8 3 Este 7 Este 0 -- -- 95
2019-08-12 04:00:00 20.8 4 Norte 24 Noroeste 28.4 -- -- 94
2019-08-12 03:00:00 22.2 9 Noroeste 36 Sudeste 16.6 -- -- 86
2019-08-12 02:00:00 25.8 15 Sudeste 30 Este 0 -- -- 78
2019-08-12 01:00:00 26.1 13 Este 30 Sudeste 0 -- -- 74
2019-08-12 00:00:00 26.8 11 Sudeste 24 Este 0 -- -- 74
2019-08-11 23:00:00 27.1 9 Sudeste 18 Este 0 -- -- 83
2019-08-11 22:00:00 27.1 3 Sudoeste 8 Sudoeste 0 -- -- 78
2019-08-11 21:00:00 27.5 4 Sur 9 Sudoeste 0 -- -- 78
2019-08-11 20:00:00 27.8 5 Sur 19 Sudeste 0 -- -- 74
2019-08-11 19:00:00 29.1 7 Sur 16 Sudeste 0 -- -- 69
2019-08-11 18:00:00 29.4 5 Sudoeste 18 Sudeste 0 -- -- 65
2019-08-11 17:00:00 29.7 9 Sur 24 Sudeste 0 -- -- 69
2019-08-11 16:00:00 29.7 12 Sudeste 22 Sudeste 0 -- -- 66
2019-08-11 15:00:00 29.8 9 Sudeste 25 Este 0 -- -- 61
2019-08-11 14:00:00 29.9 15 Sudeste 23 Sur 0 -- -- 60
2019-08-11 13:00:00 29.6 14 Sudeste 24 Sudeste 0 -- -- 62
2019-08-11 12:00:00 30.5 9 Este 20 Sudeste 0 -- -- 54
2019-08-11 11:00:00 28.7 6 Sudeste 14 Sudeste 0 -- -- 61
2019-08-11 10:00:00 27.3 10 Sudeste 15 Sudeste 0 -- -- 69
2019-08-11 09:00:00 26.1 3 Norte 8 Norte 0 -- -- 76
2019-08-11 08:00:00 24.2 4 Norte 9 Norte 0 -- -- 80
2019-08-11 07:00:00 23.8 0 Calma 6 Noroeste 0 -- -- 82
2019-08-11 06:00:00 23.6 2 Norte 4 Nordeste 0 -- -- 82
2019-08-11 05:00:00 23.4 0 Calma 5 Norte 0 -- -- 83
2019-08-11 04:00:00 23.9 0 Calma 7 Noroeste 0 -- -- 85
2019-08-11 03:00:00 24.3 2 Norte 7 Norte 0 -- -- 85
2019-08-11 02:00:00 24.8 3 Norte 9 Este 0 -- -- 84
2019-08-11 01:00:00 25.6 5 Este 13 Este 0 -- -- 83
2019-08-11 00:00:00 25.8 6 Este 19 Este 0 -- -- 82
2019-08-10 23:00:00 26.3 9 Sudeste 19 Este 0 -- -- 82
2019-08-10 22:00:00 26.5 8 Este 17 Sudeste 0 -- -- 79
2019-08-10 21:00:00 26.9 8 Sudeste 16 Sudeste 0 -- -- 77
2019-08-10 20:00:00 27.7 8 Sudeste 15 Este 0 -- -- 74
2019-08-10 19:00:00 28.3 8 Sudeste 19 Sudeste 0 -- -- 70
2019-08-10 18:00:00 29.3 11 Sudeste 21 Sudeste 0 -- -- 66
2019-08-10 17:00:00 29.7 11 Sudeste 22 Sudeste 0 -- -- 66
2019-08-10 16:00:00 30 13 Sudeste 25 Sudeste 0 -- -- 63
2019-08-10 15:00:00 29.9 13 Sudeste 24 Sudeste 0 -- -- 69
2019-08-10 14:00:00 29.5 13 Sudeste 22 Sudeste 0 -- -- 71
2019-08-10 13:00:00 29.4 13 Sudeste 22 Sudeste 0 -- -- 71
2019-08-10 12:00:00 29 12 Sudeste 22 Sudeste 0 -- -- 73
2019-08-10 11:00:00 28.7 11 Sudeste 21 Sudeste 0 -- -- 75
2019-08-10 10:00:00 28.1 11 Sudeste 22 Este 0 -- -- 77
2019-08-10 09:00:00 27.7 5 Este 12 Este 0 -- -- 64
2019-08-10 08:00:00 25.1 4 Sudeste 10 Este 0 -- -- 77
2019-08-10 07:00:00 24.8 5 Sudeste 15 Sudeste 0 -- -- 81
2019-08-10 06:00:00 24.7 4 Este 8 Este 0 -- -- 84
2019-08-10 05:00:00 24.7 0 Calma 4 Sudeste 0 -- -- 86
2019-08-10 04:00:00 25.1 0 Calma 4 Este 0 -- -- 86
2019-08-10 03:00:00 25.4 0 Calma 4 Este 0 -- -- 87
2019-08-10 02:00:00 25.6 2 Norte 8 Norte 0 -- -- 86
2019-08-10 01:00:00 26.1 2 Nordeste 5 Este 0 -- -- 84
2019-08-10 00:00:00 26.3 0 Calma 4 Norte 0 -- -- 84
2019-08-09 23:00:00 27 2 Noroeste 10 Noroeste 0 -- -- 81
2019-08-09 22:00:00 27.6 0 Calma 12 Sur 0 -- -- 79
2019-08-09 21:00:00 28.4 5 Sudoeste 10 Oeste 0 -- -- 77
2019-08-09 20:00:00 29.3 5 Oeste 16 Oeste 0 -- -- 72
2019-08-09 19:00:00 29.8 7 Sudoeste 17 Oeste 0 -- -- 74
2019-08-09 18:00:00 30.6 6 Sur 18 Sur 0 -- -- 71
2019-08-09 17:00:00 30.8 8 Sur 19 Sudoeste 0 -- -- 70
2019-08-09 16:00:00 30.9 10 Sudeste 23 Sudeste 0 -- -- 69
2019-08-09 15:00:00 30.7 10 Sudeste 23 Sudeste 0 -- -- 72
2019-08-09 14:00:00 30.8 12 Sudeste 21 Sudeste 0 -- -- 70
2019-08-09 13:00:00 30.6 8 Sudeste 16 Sudeste 0 -- -- 69
2019-08-09 12:00:00 29.6 9 Sur 18 Sudeste 0 -- -- 73
2019-08-09 11:00:00 29.5 8 Sudeste 16 Este 0 -- -- 71
2019-08-09 10:00:00 28.2 3 Sudoeste 7 Noroeste 0 -- -- 74
2019-08-09 09:00:00 26.1 4 Noroeste 8 Norte 0 -- -- 81
2019-08-09 08:00:00 24.6 2 Noroeste 6 Noroeste 0 -- -- 88
2019-08-09 07:00:00 24 2 Noroeste 6 Noroeste 0 -- -- 89
2019-08-09 06:00:00 24.6 0 Calma 3 Noroeste 0 -- -- 90
2019-08-09 05:00:00 24.2 0 Calma 3 Sudeste 0 -- -- 88
2019-08-09 04:00:00 24.2 0 Calma 4 Noroeste 0 -- -- 87
2019-08-09 03:00:00 24.5 0 Calma 4 Noroeste 0 -- -- 84
2019-08-09 02:00:00 25.3 0 Calma 3 Norte 0 -- -- 82
2019-08-09 01:00:00 25.8 0 Calma 5 Noroeste 0 -- -- 81
2019-08-09 00:00:00 26.8 3 Oeste 10 Oeste 0 -- -- 77
2019-08-08 23:00:00 27.2 3 Oeste 10 Oeste 0 -- -- 72
2019-08-08 22:00:00 27.7 3 Oeste 10 Oeste 0 -- -- 68
2019-08-08 21:00:00 28.3 3 Oeste 13 Sur 0 -- -- 72
2019-08-08 20:00:00 29.1 7 Sudoeste 15 Oeste 0 -- -- 64
2019-08-08 19:00:00 30 6 Sudoeste 17 Sudoeste 0 -- -- 65
2019-08-08 18:00:00 30.3 8 Sudoeste 21 Oeste 0 -- -- 65
2019-08-08 17:00:00 30.2 10 Sudoeste 26 Sudoeste 0 -- -- 70
2019-08-08 16:00:00 30.4 9 Sur 23 Sudeste 0 -- -- 70
2019-08-08 15:00:00 30.3 12 Sur 25 Sudeste 0 -- -- 70
2019-08-08 14:00:00 30.2 11 Sur 25 Sudeste 0 -- -- 68
2019-08-08 13:00:00 30.5 11 Sudeste 21 Sudeste 0 -- -- 66
2019-08-08 12:00:00 29.5 11 Sudeste 21 Sudeste 0 -- -- 73
2019-08-08 11:00:00 29.1 10 Sudeste 17 Sudeste 0 -- -- 74
2019-08-08 10:00:00 28.6 4 Sudoeste 12 Oeste 0 -- -- 70
2019-08-08 09:00:00 26.8 2 Norte 10 Noroeste 0 -- -- 79
2019-08-08 08:00:00 24.9 4 Noroeste 6 Noroeste 0 -- -- 89
2019-08-08 07:00:00 24.6 3 Norte 7 Noroeste 0 -- -- 90
2019-08-08 06:00:00 25 2 Noroeste 4 Norte 0 -- -- 89
2019-08-08 05:00:00 25.2 0 Calma 4 Norte 0 -- -- 88
2019-08-08 04:00:00 26 0 Calma 7 Oeste 0 -- -- 85
2019-08-08 03:00:00 26.5 3 Oeste 10 Sudoeste 0 -- -- 84
2019-08-08 02:00:00 26.4 3 Sudoeste 7 Sudoeste 0 -- -- 84
2019-08-08 01:00:00 26.5 5 Sur 13 Sudeste 0 -- -- 86
2019-08-08 00:00:00 26.3 4 Este 14 Este 0 -- -- 86
2019-08-07 23:00:00 26.3 4 Este 12 Sudeste 0 -- -- 87
2019-08-07 22:00:00 26.8 6 Sudeste 13 Sudeste 0 -- -- 86
2019-08-07 21:00:00 27.1 6 Sudeste 13 Sudeste 0 -- -- 83
2019-08-07 20:00:00 27.3 6 Sudeste 17 Este 0 -- -- 83
2019-08-07 19:00:00 27.8 7 Sudeste 17 Sudeste 0 -- -- 80
2019-08-07 18:00:00 28.4 10 Este 21 Este 0 -- -- 79
2019-08-07 17:00:00 29.5 9 Sudeste 22 Sudeste 0 -- -- 75
2019-08-07 16:00:00 28.5 10 Este 22 Este 0 -- -- 79
2019-08-07 15:00:00 28.5 10 Sudeste 23 Este 0 -- -- 77
2019-08-07 14:00:00 29.2 14 Sudeste 26 Sudeste 0 -- -- 74
2019-08-07 13:00:00 29.2 13 Sudeste 23 Sudeste 0 -- -- 73
2019-08-07 12:00:00 28.7 13 Sudeste 22 Sudeste 0 -- -- 74
2019-08-07 11:00:00 28.6 12 Sudeste 23 Sudeste 0 -- -- 74
2019-08-07 10:00:00 27.6 4 Sudeste 12 Sudeste 0 -- -- 74
2019-08-07 09:00:00 26.7 3 Este 13 Este 0 -- -- 76
2019-08-07 08:00:00 25.5 3 Este 8 Este 0 -- -- 80
2019-08-07 07:00:00 25.1 0 Calma 6 Sudeste 0 -- -- 82
2019-08-07 06:00:00 25 0 Calma 5 Norte 0 -- -- 83
2019-08-07 05:00:00 25.1 2 Este 13 Este 0 -- -- 85
2019-08-07 04:00:00 25.4 4 Este 10 Este 0 -- -- 85
2019-08-07 03:00:00 25.2 2 Nordeste 8 Nordeste 0 -- -- 83
2019-08-07 02:00:00 25.8 3 Este 8 Este 0 -- -- 81
2019-08-07 01:00:00 26.1 0 Calma 10 Sudeste 0 -- -- 80
2019-08-07 00:00:00 26.1 0 Calma 10 Sudeste 0 -- -- 78
2019-08-06 23:00:00 26.4 5 Sur 9 Sudeste 0 -- -- 78
2019-08-06 22:00:00 26.4 3 Este 9 Este 0 -- -- 78
2019-08-06 21:00:00 27.1 6 Sudeste 12 Sudeste 0 -- -- 75
2019-08-06 20:00:00 27.6 6 Sudeste 17 Sudeste 0 -- -- 75
2019-08-06 19:00:00 28.3 6 Sur 17 Sur 0 -- -- 70
2019-08-06 18:00:00 28.6 9 Sudeste 19 Este 0 -- -- 69
2019-08-06 17:00:00 29.1 10 Sudeste 23 Sudeste 0 -- -- 67
2019-08-06 16:00:00 29.6 12 Sudeste 21 Sudeste 0 -- -- 71
2019-08-06 15:00:00 29.2 10 Sudeste 22 Sudeste 0 -- -- 72
2019-08-06 14:00:00 29 12 Sudeste 22 Sudeste 0 -- -- 73
2019-08-06 13:00:00 29.2 13 Sudeste 19 Sudeste 0 -- -- 71
2019-08-06 12:00:00 28.9 9 Sudeste 21 Sudeste 0 -- -- 70
2019-08-06 11:00:00 27.9 9 Este 19 Sudeste 0 -- -- 71
2019-08-06 10:00:00 27.8 8 Sudeste 16 Este 0 -- -- 69
2019-08-06 09:00:00 26.1 4 Nordeste 10 Nordeste 0 -- -- 72
2019-08-06 08:00:00 24 2 Norte 6 Noroeste 0 -- -- 74
2019-08-06 07:00:00 23.8 2 Norte 6 Norte 0 -- -- 86
2019-08-06 06:00:00 24.1 0 Calma 5 Noroeste 0 -- -- 85
2019-08-06 05:00:00 23.9 0 Calma 6 Este 0 -- -- 84
2019-08-06 04:00:00 23.6 0 Calma 4 Este 0 -- -- 84
2019-08-06 03:00:00 24.1 0 Calma 3 Nordeste 0 -- -- 85
2019-08-06 02:00:00 24.4 0 Calma 4 Nordeste 0 -- -- 84
2019-08-06 01:00:00 24.8 0 Calma 4 Este 0 -- -- 83
2019-08-06 00:00:00 25.6 0 Calma 5 Nordeste 0 -- -- 80
2019-08-05 23:00:00 26.2 4 Este 9 Este 0 -- -- 77
2019-08-05 22:00:00 26.8 3 Este 12 Sur 0 -- -- 73
2019-08-05 21:00:00 27.6 7 Sur 15 Sudeste 0 -- -- 62
2019-08-05 20:00:00 29.4 9 Sudeste 13 Sur 0 -- -- 52
2019-08-05 19:00:00 29.6 4 Sur 13 Sudeste 0 -- -- 51
2019-08-05 18:00:00 29.6 9 Sudeste 19 Sudeste 0 -- -- 62
2019-08-05 17:00:00 30.2 9 Sudeste 19 Sur 0 -- -- 62
2019-08-05 16:00:00 31 8 Sur 19 Sudoeste 0 -- -- 57
2019-08-05 15:00:00 30.1 8 Sur 18 Sur 0 -- -- 63
2019-08-05 14:00:00 29.9 6 Sur 17 Sudoeste 0 -- -- 61
2019-08-05 13:00:00 29.8 10 Sudeste 18 Sudeste 0 -- -- 63
2019-08-05 12:00:00 29.4 9 Sudeste 17 Sudeste 0 -- -- 60
2019-08-05 11:00:00 28.6 8 Sudeste 13 Sudeste 0 -- -- 69
2019-08-05 10:00:00 27.6 6 Sur 11 Sur 0 -- -- 72
2019-08-05 09:00:00 25.3 6 Noroeste 9 Noroeste 0 -- -- 79
2019-08-05 08:00:00 22.8 4 Noroeste 7 Norte 0 -- -- 90
2019-08-05 07:00:00 22.3 3 Noroeste 6 Noroeste 0 -- -- 89
2019-08-05 06:00:00 23 0 Calma 4 Noroeste 0 -- -- 90
2019-08-05 05:00:00 23.3 0 Calma 6 Noroeste 0 -- -- 88
2019-08-05 04:00:00 23.7 3 Noroeste 4 Noroeste 0 -- -- 88
2019-08-05 03:00:00 24.2 0 Calma 5 Sudeste 0 -- -- 86
2019-08-05 02:00:00 24.5 0 Calma 5 Este 0 -- -- 85
2019-08-05 01:00:00 24.9 2 Este 3 Este 0 -- -- 83
2019-08-05 00:00:00 25.5 0 Calma 8 Sur 0 -- -- 80
2019-08-04 23:00:00 26 2 Sudeste 8 Sur 0 -- -- 76
2019-08-04 22:00:00 26.4 4 Sudeste 10 Sudeste 0 -- -- 74
2019-08-04 21:00:00 26.9 4 Sudeste 10 Este 0 -- -- 73
2019-08-04 20:00:00 27.7 3 Sur 11 Sudeste 0 -- -- 63
2019-08-04 19:00:00 28.4 5 Sudeste 14 Sudeste 0 -- -- 63
2019-08-04 18:00:00 28.8 8 Sudeste 22 Sudeste 0 -- -- 65
2019-08-04 17:00:00 28.8 11 Sur 26 Este 0 -- -- 67
2019-08-04 16:00:00 29.1 11 Sudeste 23 Sudeste 0 -- -- 69
2019-08-04 15:00:00 28.7 13 Sudeste 22 Sudeste 0 -- -- 72
2019-08-04 14:00:00 28.6 11 Sudeste 21 Sudeste 0 -- -- 70
2019-08-04 13:00:00 28.5 12 Sudeste 21 Sudeste 0 -- -- 72
2019-08-04 12:00:00 27.9 12 Sudeste 19 Sudeste 0 -- -- 72
2019-08-04 11:00:00 27.6 8 Sudeste 14 Sudeste 0 -- -- 72
2019-08-04 10:00:00 26.9 7 Sudeste 13 Este 0 -- -- 76
2019-08-04 09:00:00 25.4 4 Sudeste 9 Sudeste 0 -- -- 83
2019-08-04 08:00:00 23.2 2 Noroeste 4 Norte 0 -- -- 88
2019-08-04 07:00:00 23 0 Calma 2 Noroeste 0 -- -- 88
2019-08-04 06:00:00 23.3 0 Calma 3 Sudeste 0 -- -- 86
2019-08-04 05:00:00 24.1 0 Calma 3 Este 0 -- -- 84
2019-08-04 04:00:00 24.9 0 Calma 6 Sudeste 0 -- -- 82
2019-08-04 03:00:00 25.5 4 Sudeste 8 Sudeste 0 -- -- 81
2019-08-04 02:00:00 25.5 3 Sur 8 Sudoeste 0 -- -- 78
2019-08-04 01:00:00 25.8 4 Sur 11 Sudoeste 0 -- -- 76
2019-08-04 00:00:00 26 4 Sur 9 Sudoeste 0 -- -- 73
2019-08-03 23:00:00 26.4 4 Sur 10 Sudoeste 0 -- -- 69
2019-08-03 22:00:00 26.5 4 Oeste 16 Sudoeste 0 -- -- 68
2019-08-03 21:00:00 26.8 5 Sudoeste 16 Oeste 0 -- -- 65
2019-08-03 20:00:00 27.3 8 Sudeste 14 Sudeste 0 -- -- 64
2019-08-03 19:00:00 28 6 Sur 16 Sudeste 0 -- -- 68
2019-08-03 18:00:00 28.5 9 Sur 17 Este 0 -- -- 68
2019-08-03 17:00:00 28.8 10 Sudeste 18 Sudeste 0 -- -- 65
2019-08-03 16:00:00 28.7 11 Sudeste 20 Sudeste 0 -- -- 64
2019-08-03 15:00:00 29 9 Sur 20 Sudeste 0 -- -- 64
2019-08-03 14:00:00 28.7 10 Sur 24 Sudeste 0 -- -- 61
2019-08-03 13:00:00 29.2 9 Sudoeste 17 Oeste 0 -- -- 54
2019-08-03 12:00:00 29.1 9 Sur 15 Sudeste 0 -- -- 51
2019-08-03 11:00:00 28.7 7 Sur 14 Sudoeste 0 -- -- 49
2019-08-03 10:00:00 27.8 3 Sur 9 Oeste 0 -- -- 46
2019-08-03 09:00:00 24.4 3 Noroeste 7 Noroeste 0 -- -- 56
2019-08-03 08:00:00 20.7 4 Noroeste 7 Noroeste 0 -- -- 72
2019-08-03 07:00:00 20.4 3 Noroeste 6 Noroeste 0 -- -- 73
2019-08-03 06:00:00 20.5 0 Calma 7 Norte 0 -- -- 75
2019-08-03 05:00:00 21 3 Noroeste 5 Noroeste 0 -- -- 75
2019-08-03 04:00:00 21.8 0 Calma 5 Noroeste 0 -- -- 72
2019-08-03 03:00:00 22.1 4 Noroeste 6 Noroeste 0 -- -- 77
2019-08-03 02:00:00 22.8 0 Calma 4 Norte 0 -- -- 75
2019-08-03 01:00:00 23.4 2 Norte 5 Noroeste 0 -- -- 76
2019-08-03 00:00:00 24.2 0 Calma 6 Oeste 0 -- -- 74
2019-08-02 23:00:00 25.1 3 Oeste 11 Oeste 0 -- -- 72
2019-08-02 22:00:00 25.7 4 Oeste 13 Sudoeste 0 -- -- 70
2019-08-02 21:00:00 26.5 4 Sudoeste 14 Oeste 0 -- -- 65
2019-08-02 20:00:00 27.4 7 Sudoeste 14 Sudoeste 0 -- -- 59
2019-08-02 19:00:00 28.4 7 Sudoeste 20 Oeste 0 -- -- 54
2019-08-02 18:00:00 29.5 7 Sudoeste 24 Sudoeste 0 -- -- 51
2019-08-02 17:00:00 30.2 10 Sudoeste 24 Oeste 0 -- -- 48
2019-08-02 16:00:00 30.7 12 Sudoeste 25 Sudoeste 0 -- -- 43
2019-08-02 15:00:00 31.1 10 Sur 26 Sur 0 -- -- 39
2019-08-02 14:00:00 31.5 12 Sudoeste 22 Sudoeste 0 -- -- 38
2019-08-02 13:00:00 31.8 9 Sur 17 Sudeste 0 -- -- 36
2019-08-02 12:00:00 31.6 5 Sur 12 Sudeste 0 -- -- 40
2019-08-02 11:00:00 30.4 4 Sur 10 Sur 0 -- -- 35
2019-08-02 10:00:00 29 4 Sur 6 Oeste 0 -- -- 36
2019-08-02 09:00:00 25.4 3 Norte 10 Norte 0 -- -- 43
2019-08-02 08:00:00 22.3 4 Norte 9 Noroeste 0 -- -- 48
2019-08-02 07:00:00 20.9 4 Norte 9 Noroeste 0 -- -- 53
2019-08-02 06:00:00 20.7 3 Noroeste 9 Noroeste 0 -- -- 64
2019-08-02 05:00:00 21.1 6 Noroeste 9 Norte 0 -- -- 69
2019-08-02 04:00:00 21.8 0 Calma 11 Nordeste 0 -- -- 68
2019-08-02 03:00:00 22.2 2 Norte 7 Norte 0 -- -- 67
2019-08-02 02:00:00 22.5 3 Noroeste 9 Noroeste 0 -- -- 68
2019-08-02 01:00:00 22.6 2 Norte 6 Noroeste 0 -- -- 68
2019-08-02 00:00:00 23.4 2 Norte 5 Este 0 -- -- 66
2019-08-01 23:00:00 24.8 3 Este 12 Sudeste 0 -- -- 61
2019-08-01 22:00:00 25.1 5 Este 16 Sudeste 0 -- -- 60
2019-08-01 21:00:00 25.3 8 Sudeste 24 Sudeste 0 -- -- 63
2019-08-01 20:00:00 26 10 Sudeste 24 Este 0 -- -- 67
2019-08-01 19:00:00 27.1 11 Sudeste 20 Sudeste 0 -- -- 61
2019-08-01 18:00:00 27.5 9 Sudeste 19 Sudeste 0 -- -- 57
2019-08-01 17:00:00 27.9 11 Sudeste 23 Sudeste 0 -- -- 53
2019-08-01 16:00:00 29 15 Sudeste 26 Este 0 -- -- 48
2019-08-01 15:00:00 28.8 13 Sudeste 26 Sudeste 0 -- -- 47
2019-08-01 14:00:00 28.4 12 Este 25 Este 0 -- -- 50
2019-08-01 13:00:00 28 14 Sudeste 23 Sur 0 -- -- 52
2019-08-01 12:00:00 28 10 Este 18 Este 0 -- -- 54
2019-08-01 11:00:00 27.3 9 Sudeste 19 Este 0 -- -- 59
2019-08-01 10:00:00 26.5 5 Sudeste 13 Este 0 -- -- 61
2019-08-01 09:00:00 24.4 4 Sudeste 9 Este 0 -- -- 63
2019-08-01 08:00:00 21.5 0 Calma 4 Norte 0 -- -- 74
2019-08-01 07:00:00 20.8 2 Noroeste 7 Norte 0 -- -- 79
2019-08-01 06:00:00 21.4 4 Norte 10 Nordeste 0 -- -- 80
2019-08-01 05:00:00 21.6 2 Norte 8 Este 0 -- -- 79
2019-08-01 04:00:00 21.9 3 Norte 8 Norte 0 -- -- 79
2019-08-01 03:00:00 21.7 0 Calma 5 Este 0 -- -- 80
2019-08-01 02:00:00 22.3 3 Sudeste 8 Este 0 -- -- 78
2019-08-01 01:00:00 22.8 3 Nordeste 7 Nordeste 0 -- -- 77
2019-08-01 00:00:00 23.3 2 Nordeste 6 Este 0 -- -- 75
2019-07-31 23:00:00 23.8 0 Calma 9 Este 0 -- -- 74
2019-07-31 22:00:00 24 0 Calma 12 Este 0 -- -- 73
2019-07-31 21:00:00 24.6 5 Sudeste 14 Sudeste 0 -- -- 72
2019-07-31 20:00:00 25.2 9 Sudeste 18 Sudeste 0 -- -- 69
2019-07-31 19:00:00 25.7 9 Sudeste 21 Sudeste 0 -- -- 68
2019-07-31 18:00:00 26.3 9 Sudeste 21 Sudeste 0 -- -- 66
2019-07-31 17:00:00 26.3 11 Sudeste 22 Sur 0 -- -- 65
2019-07-31 16:00:00 26.5 12 Sudeste 27 Sudeste 0 -- -- 63
2019-07-31 15:00:00 26.5 13 Sudeste 24 Sur 0 -- -- 63
2019-07-31 14:00:00 25.9 13 Sudeste 28 Sudeste 0 -- -- 66
2019-07-31 13:00:00 26.2 12 Sudeste 23 Sudeste 0 -- -- 65
2019-07-31 12:00:00 27 14 Sudeste 22 Este 0 -- -- 64
2019-07-31 11:00:00 27.9 9 Norte 19 Nordeste 0 -- -- 48
2019-07-31 10:00:00 24.2 6 Norte 18 Norte 0 -- -- 52
2019-07-31 09:00:00 22.8 8 Norte 17 Norte 0 -- -- 57
2019-07-31 08:00:00 22.1 7 Norte 17 Noroeste 0 -- -- 61
2019-07-31 07:00:00 21.8 5 Norte 15 Norte 0 -- -- 67
2019-07-31 06:00:00 22.4 6 Norte 13 Norte 0 -- -- 78
2019-07-31 05:00:00 23.1 3 Este 6 Este 0 -- -- 87
2019-07-31 04:00:00 23.1 0 Calma 11 Sudeste 0.4 -- -- 84
2019-07-31 03:00:00 25 9 Sudeste 18 Sudeste 0 -- -- 79
2019-07-31 02:00:00 25.3 8 Sudeste 16 Este 0 -- -- 77
2019-07-31 01:00:00 25.3 6 Sudeste 15 Este 0 -- -- 76
2019-07-31 00:00:00 25.5 7 Sudeste 14 Este 0 -- -- 75
2019-07-30 23:00:00 25.6 7 Sudeste 16 Este 0 -- -- 77
2019-07-30 22:00:00 25.6 8 Sudeste 16 Sudeste 0 -- -- 78
2019-07-30 21:00:00 26.2 7 Sudeste 18 Este 0 -- -- 77
2019-07-30 20:00:00 26.7 9 Sudeste 18 Sudeste 0 -- -- 72
2019-07-30 19:00:00 27.4 10 Sudeste 22 Sudeste 0 -- -- 65
2019-07-30 18:00:00 28.8 11 Sudeste 24 Este 0 -- -- 57
2019-07-30 17:00:00 29.7 13 Sudeste 27 Sudeste 0 -- -- 52
2019-07-30 16:00:00 30.2 16 Sudeste 27 Sudeste 0 -- -- 45
2019-07-30 15:00:00 31.8 8 Sur 22 Sur 0 -- -- 36
2019-07-30 14:00:00 32.2 10 Sudoeste 20 Noroeste 0 -- -- 36
2019-07-30 13:00:00 32 6 Oeste 18 Noroeste 0 -- -- 38
2019-07-30 12:00:00 30.2 6 Oeste 16 Oeste 0 -- -- 43
2019-07-30 11:00:00 29.9 8 Oeste 14 Oeste 0 -- -- 44
2019-07-30 10:00:00 28.3 5 Noroeste 12 Noroeste 0 -- -- 52
2019-07-30 09:00:00 25.4 3 Oeste 12 Noroeste 0 -- -- 56
2019-07-30 08:00:00 23.5 6 Noroeste 14 Noroeste 0 -- -- 58
2019-07-30 07:00:00 23.4 5 Noroeste 16 Noroeste 0 -- -- 59
2019-07-30 06:00:00 24.3 5 Noroeste 12 Noroeste 0 -- -- 63
2019-07-30 05:00:00 25 7 Sudeste 12 Este 0 -- -- 87
2019-07-30 04:00:00 25 5 Este 11 Sudeste 0 -- -- 87
2019-07-30 03:00:00 25 3 Sudeste 11 Este 0 -- -- 87
2019-07-30 02:00:00 25.3 4 Este 10 Sudeste 0 -- -- 88
2019-07-30 01:00:00 25.6 3 Sudeste 8 Sudeste 0 -- -- 85
2019-07-30 00:00:00 25.6 3 Sur 9 Sudoeste 0 -- -- 83
2019-07-29 23:00:00 25.5 3 Sudoeste 13 Oeste 0 -- -- 81
2019-07-29 22:00:00 25.9 6 Sudoeste 14 Sudoeste 0 -- -- 78
2019-07-29 21:00:00 26.3 6 Sudoeste 18 Sur 0 -- -- 74
2019-07-29 20:00:00 27.1 5 Sudoeste 17 Sudeste 0 -- -- 76
2019-07-29 19:00:00 27.5 8 Sur 18 Sudeste 0 -- -- 75
2019-07-29 18:00:00 28.2 7 Sur 17 Sudeste 0 -- -- 72
2019-07-29 17:00:00 28.2 8 Sur 18 Sudeste 0 -- -- 71
2019-07-29 16:00:00 28.1 10 Sudeste 20 Sudeste 0 -- -- 71
2019-07-29 15:00:00 28 9 Sudeste 22 Sudeste 0 -- -- 68
2019-07-29 14:00:00 28.3 12 Sudeste 21 Sudeste 0 -- -- 65
2019-07-29 13:00:00 28.4 8 Sur 19 Sudeste 0 -- -- 62
2019-07-29 12:00:00 27.3 10 Sudeste 19 Este 0 -- -- 61
2019-07-29 11:00:00 26.7 7 Sudeste 12 Sudeste 0 -- -- 65
2019-07-29 10:00:00 26.1 4 Sudeste 12 Sudeste 0 -- -- 63
2019-07-29 09:00:00 23.8 3 Sudeste 7 Sudeste 0 -- -- 69
2019-07-29 08:00:00 20.7 0 Calma 13 Norte 0 -- -- 76
2019-07-29 07:00:00 19.4 5 Norte 12 Noroeste 0 -- -- 79
2019-07-29 06:00:00 19.8 4 Noroeste 8 Noroeste 0 -- -- 81
2019-07-29 05:00:00 20.1 0 Calma 4 Noroeste 0 -- -- 83
2019-07-29 04:00:00 20.5 0 Calma 5 Este 0 -- -- 79
2019-07-29 03:00:00 20.5 3 Noroeste 5 Noroeste 0 -- -- 75
2019-07-29 02:00:00 21.5 0 Calma 3 Noroeste 0 -- -- 72
2019-07-29 01:00:00 22.9 2 Noroeste 8 Oeste 0 -- -- 69
2019-07-29 00:00:00 23.9 3 Oeste 12 Oeste 0 -- -- 68
2019-07-28 23:00:00 24.1 3 Oeste 18 Oeste 0 -- -- 67
2019-07-28 22:00:00 24.7 6 Oeste 26 Oeste 0 -- -- 63
2019-07-28 21:00:00 25.2 9 Oeste 33 Oeste 0 -- -- 61
2019-07-28 20:00:00 25.5 13 Oeste 34 Sudoeste 0 -- -- 59
2019-07-28 19:00:00 26.4 14 Sudoeste 40 Sudoeste 0 -- -- 55
2019-07-28 18:00:00 30.5 14 Sudoeste 39 Oeste 0 -- -- 46
2019-07-28 17:00:00 33.4 9 Noroeste 26 Oeste 0 -- -- 28
2019-07-28 16:00:00 33.2 10 Oeste 26 Noroeste 0 -- -- 27
2019-07-28 15:00:00 30.8 10 Sudoeste 22 Sudoeste 0 -- -- 32
2019-07-28 14:00:00 29.1 9 Sudoeste 31 Sudoeste 0 -- -- 38
2019-07-28 13:00:00 28.3 4 Sur 18 Sudeste 0 -- -- 38
2019-07-28 12:00:00 26.8 9 Sudoeste 21 Oeste 0 -- -- 40
2019-07-28 11:00:00 27.1 7 Norte 17 Noroeste 0 -- -- 39
2019-07-28 10:00:00 23.9 9 Noroeste 27 Noroeste 0 -- -- 48
2019-07-28 09:00:00 21.4 7 Noroeste 18 Noroeste 0 -- -- 54
2019-07-28 08:00:00 19.1 3 Noroeste 26 Norte 0 -- -- 60
2019-07-28 07:00:00 18.8 8 Noroeste 20 Noroeste 0 -- -- 61
2019-07-28 06:00:00 19.2 6 Oeste 19 Noroeste 0 -- -- 59
2019-07-28 05:00:00 20 8 Noroeste 36 Noroeste 0 -- -- 57
2019-07-28 04:00:00 20.5 10 Noroeste 27 Noroeste 0 -- -- 55
2019-07-28 03:00:00 21.3 3 Sudoeste 23 Noroeste 0 -- -- 54
2019-07-28 02:00:00 21.9 6 Oeste 20 Oeste 0 -- -- 53
2019-07-28 01:00:00 22.9 7 Sudoeste 20 Sudoeste 0 -- -- 51
2019-07-28 00:00:00 23.7 6 Oeste 20 Noroeste 0 -- -- 50
2019-07-27 23:00:00 25.4 13 Noroeste 35 Noroeste 0 -- -- 43
2019-07-26 12:00:00 28.8 11 Sudeste 19 Sudeste 0 -- -- 70
2019-07-26 11:00:00 28.5 9 Sudeste 14 Sudeste 0 -- -- 70
2019-07-26 10:00:00 27.9 7 Sudeste 11 Sudeste 0 -- -- 72
2019-07-26 09:00:00 26.2 4 Sudeste 9 Sudeste 0 -- -- 78
2019-07-26 08:00:00 23.9 4 Noroeste 7 Noroeste 0 -- -- 86
2019-07-26 07:00:00 23.6 0 Calma 4 Noroeste 0 -- -- 88
2019-07-26 06:00:00 23.6 2 Noroeste 4 Noroeste 0 -- -- 86
2019-07-26 05:00:00 24.3 0 Calma 4 Este 0 -- -- 86
2019-07-26 04:00:00 24.7 2 Noroeste 6 Noroeste 0 -- -- 85
2019-07-26 03:00:00 24.8 3 Noroeste 6 Noroeste 0 -- -- 84
2019-07-26 02:00:00 25 0 Calma 4 Noroeste 0 -- -- 84
2019-07-26 01:00:00 25.5 0 Calma 5 Este 0 -- -- 83
2019-07-26 00:00:00 26.1 3 Sudoeste 7 Sudoeste 0 -- -- 81
2019-07-25 23:00:00 26.7 3 Sudeste 9 Sudeste 0 -- -- 81
2019-07-25 22:00:00 27.1 4 Sudeste 10 Sudeste 0 -- -- 78
2019-07-25 21:00:00 27.7 6 Sudeste 11 Sudeste 0 -- -- 73
2019-07-25 20:00:00 28.2 7 Sudeste 17 Sudeste 0 -- -- 70
2019-07-25 19:00:00 28.7 8 Sur 18 Este 0 -- -- 67
2019-07-25 18:00:00 29.1 9 Sudeste 19 Sudeste 0 -- -- 74
2019-07-25 17:00:00 29.4 11 Sudeste 21 Sudeste 0 -- -- 72
2019-07-25 16:00:00 29.2 13 Sudeste 21 Sudeste 0 -- -- 73
2019-07-25 15:00:00 29.2 12 Sudeste 22 Sudeste 0 -- -- 73
2019-07-25 14:00:00 28.9 10 Sudeste 23 Sudeste 0 -- -- 72
2019-07-25 13:00:00 28.9 12 Sudeste 19 Sudeste 0 -- -- 72
2019-07-25 12:00:00 29.4 10 Sudeste 20 Sudeste 0 -- -- 69
2019-07-25 11:00:00 29.1 10 Sudeste 16 Sudeste 0 -- -- 69
2019-07-25 10:00:00 28.3 7 Sudeste 12 Sudeste 0 -- -- 71
2019-07-25 09:00:00 25.5 3 Este 6 Sudeste 0 -- -- 84
2019-07-25 08:00:00 22.6 2 Noroeste 7 Noroeste 0 -- -- 87
2019-07-25 07:00:00 21.6 0 Calma 5 Noroeste 0 -- -- 87
2019-07-25 06:00:00 22 0 Calma 4 Noroeste 0 -- -- 89
2019-07-25 05:00:00 22.5 2 Noroeste 5 Noroeste 0 -- -- 89
2019-07-25 04:00:00 23.3 0 Calma 4 Este 0 -- -- 88
2019-07-25 03:00:00 23.8 0 Calma 4 Noroeste 0 -- -- 90
2019-07-25 02:00:00 24.4 0 Calma 4 Sudeste 0 -- -- 88
2019-07-25 01:00:00 25 0 Calma 4 Este 0 -- -- 87
2019-07-25 00:00:00 25.5 0 Calma 4 Este 0 -- -- 86
2019-07-24 23:00:00 26.2 2 Este 8 Este 0 -- -- 83
2019-07-24 22:00:00 26.6 4 Este 11 Este 0 -- -- 82
2019-07-24 21:00:00 27.2 5 Sudeste 13 Sudeste 0 -- -- 80
2019-07-24 20:00:00 27.9 8 Sudeste 15 Este 0 -- -- 77
2019-07-24 19:00:00 28.7 8 Sudeste 19 Sudeste 0 -- -- 73
2019-07-24 18:00:00 29.5 10 Sudeste 20 Este 0 -- -- 69
2019-07-24 17:00:00 30 12 Sudeste 19 Sudeste 0 -- -- 64
2019-07-24 16:00:00 30 12 Sudeste 21 Este 0 -- -- 64
2019-07-24 15:00:00 30.4 10 Sudeste 22 Este 0 -- -- 60
2019-07-24 14:00:00 29.9 13 Sudeste 21 Sudeste 0 -- -- 65
2019-07-24 13:00:00 30.9 12 Sudeste 17 Sudeste 0 -- -- 61
2019-07-24 12:00:00 31.3 8 Sudeste 17 Este 0 -- -- 55
2019-07-24 11:00:00 30.5 7 Sudeste 14 Sudeste 0 -- -- 60
2019-07-24 10:00:00 29.2 3 Sudoeste 9 Norte 0 -- -- 63
2019-07-24 09:00:00 26.2 5 Noroeste 8 Noroeste 0 -- -- 80
2019-07-24 08:00:00 22.7 3 Noroeste 9 Noroeste 0 -- -- 66
2019-07-24 07:00:00 22.1 5 Noroeste 9 Norte 0 -- -- 67
2019-07-24 06:00:00 22.6 2 Noroeste 8 Noroeste 0 -- -- 72
2019-07-24 05:00:00 22.4 3 Noroeste 7 Noroeste 0 -- -- 76
2019-07-24 04:00:00 22.9 3 Noroeste 4 Noroeste 0 -- -- 80
2019-07-24 03:00:00 23.8 0 Calma 4 Nordeste 0 -- -- 80
2019-07-24 02:00:00 24.4 2 Noroeste 4 Noroeste 0 -- -- 75
2019-07-24 01:00:00 25.1 0 Calma 5 Sudeste 0 -- -- 67
2019-07-24 00:00:00 26.7 2 Sudeste 8 Sudeste 0 -- -- 57
2019-07-23 23:00:00 27.3 0 Calma 7 Sudoeste 0 -- -- 50
2019-07-23 22:00:00 28 4 Oeste 9 Oeste 0 -- -- 47
2019-07-23 21:00:00 29.4 4 Oeste 14 Oeste 0 -- -- 44
2019-07-23 20:00:00 30.6 6 Sudoeste 15 Sudoeste 0 -- -- 48
2019-07-23 19:00:00 31.1 9 Sudoeste 18 Sur 0 -- -- 52
2019-07-23 18:00:00 32.8 7 Sudoeste 16 Sudoeste 0 -- -- 48
2019-07-23 17:00:00 32.2 10 Sudoeste 21 Sudoeste 0 -- -- 50
2019-07-23 16:00:00 32.3 9 Sudoeste 24 Sudoeste 0 -- -- 54
2019-07-23 15:00:00 32.6 10 Sudoeste 22 Oeste 0 -- -- 39
2019-07-23 14:00:00 31.2 9 Sur 19 Sudeste 0 -- -- 54
2019-07-23 13:00:00 31.5 8 Sudeste 17 Sudoeste 0 -- -- 55
2019-07-23 12:00:00 31.3 8 Sudoeste 18 Sudoeste 0 -- -- 48
2019-07-23 11:00:00 30.7 9 Sudoeste 14 Sudoeste 0 -- -- 53
2019-07-23 10:00:00 29.6 5 Sur 10 Sudoeste 0 -- -- 51
2019-07-23 09:00:00 26 3 Noroeste 8 Norte 0 -- -- 52
2019-07-23 08:00:00 22.6 3 Noroeste 5 Noroeste 0 -- -- 63
2019-07-23 07:00:00 22.1 2 Noroeste 6 Nordeste 0 -- -- 62
2019-07-23 06:00:00 22.2 0 Calma 3 Noroeste 0 -- -- 74
2019-07-23 05:00:00 22.5 0 Calma 5 Noroeste 0 -- -- 78
2019-07-23 04:00:00 22.8 0 Calma 5 Noroeste 0 -- -- 78
2019-07-23 03:00:00 23.2 0 Calma 4 Noroeste 0 -- -- 76
2019-07-23 02:00:00 24.2 4 Noroeste 5 Noroeste 0 -- -- 78
2019-07-23 01:00:00 25 0 Calma 3 Noroeste 0 -- -- 78
2019-07-23 00:00:00 25.9 2 Noroeste 6 Oeste 0 -- -- 79
2019-07-22 23:00:00 26.7 2 Oeste 8 Oeste 0 -- -- 77
2019-07-22 22:00:00 27.6 3 Sudoeste 9 Oeste 0 -- -- 66
2019-07-22 21:00:00 28.7 3 Sudoeste 10 Sudoeste 0 -- -- 62
2019-07-22 20:00:00 29.4 4 Sudoeste 12 Sur 0 -- -- 62
2019-07-22 19:00:00 30 6 Sudoeste 14 Sur 0 -- -- 61
2019-07-22 18:00:00 30.8 7 Sudoeste 16 Sudoeste 0 -- -- 58
2019-07-22 17:00:00 31.1 6 Sudeste 16 Sudoeste 0 -- -- 56
2019-07-22 16:00:00 30.1 10 Sudeste 21 Sudeste 0 -- -- 59
2019-07-22 15:00:00 29.8 10 Sudeste 19 Este 0 -- -- 62
2019-07-22 14:00:00 29.9 9 Sur 19 Sudeste 0 -- -- 60
2019-07-22 13:00:00 30.6 8 Sudeste 16 Sudeste 0 -- -- 55
2019-07-22 12:00:00 30.6 9 Sudeste 15 Este 0 -- -- 45
2019-07-22 11:00:00 31.2 6 Sur 13 Sudeste 0 -- -- 45
2019-07-22 10:00:00 29.2 4 Sur 8 Sudeste 0 -- -- 60
2019-07-22 09:00:00 24.9 0 Calma 5 Noroeste 0 -- -- 75
2019-07-22 08:00:00 21.5 2 Noroeste 5 Noroeste 0 -- -- 77
2019-07-22 07:00:00 20.3 3 Noroeste 6 Noroeste 0 -- -- 75
2019-07-22 06:00:00 20.3 0 Calma 5 Noroeste 0 -- -- 72
2019-07-22 05:00:00 20.7 3 Noroeste 9 Norte 0 -- -- 75
2019-07-22 04:00:00 21.8 2 Noroeste 5 Norte 0 -- -- 84
2019-07-22 03:00:00 22.8 3 Noroeste 5 Noroeste 0 -- -- 88
2019-07-22 02:00:00 23.6 0 Calma 4 Este 0 -- -- 89
2019-07-22 01:00:00 24.1 0 Calma 3 Norte 0 -- -- 89
2019-07-22 00:00:00 24.6 0 Calma 5 Nordeste 0 -- -- 87
2019-07-21 23:00:00 25.2 3 Este 10 Este 0 -- -- 85
2019-07-21 22:00:00 25.7 5 Este 13 Este 0 -- -- 83
2019-07-21 21:00:00 26.4 7 Sudeste 14 Este 0 -- -- 79
2019-07-21 20:00:00 27.3 6 Sudeste 15 Este 0 -- -- 74
2019-07-21 19:00:00 28 8 Sudeste 14 Este 0 -- -- 69
2019-07-21 18:00:00 29.7 6 Sur 11 Sudeste 0 -- -- 53
2019-07-21 17:00:00 29.8 6 Sur 18 Sudeste 0 -- -- 55
2019-07-21 16:00:00 29.7 9 Sudeste 19 Sudeste 0 -- -- 58
2019-07-21 15:00:00 29.4 10 Sudeste 19 Sudeste 0 -- -- 63
2019-07-21 14:00:00 28.9 11 Sudeste 23 Este 0 -- -- 64
2019-07-21 13:00:00 28.6 10 Sudeste 24 Sudeste 0 -- -- 70
2019-07-21 12:00:00 27.8 12 Sudeste 22 Este 0 -- -- 74
2019-07-21 11:00:00 27.4 12 Sudeste 22 Sudeste 0 -- -- 74
2019-07-21 10:00:00 27.3 8 Sudeste 14 Sudeste 0 -- -- 65
2019-07-21 09:00:00 25.9 5 Sudeste 9 Sudeste 0 -- -- 59
2019-07-21 08:00:00 23.3 4 Norte 14 Norte 0 -- -- 69
2019-07-21 07:00:00 21.8 2 Norte 4 Norte 0 -- -- 80
2019-07-21 06:00:00 21.9 0 Calma 4 Norte 0 -- -- 79
2019-07-21 05:00:00 22.5 0 Calma 6 Norte 0 -- -- 81
2019-07-21 04:00:00 23.2 0 Calma 8 Este 0 -- -- 81
2019-07-21 03:00:00 24.1 3 Nordeste 12 Sudeste 0 -- -- 88
2019-07-21 02:00:00 24.4 2 Nordeste 11 Nordeste 0 -- -- 87
2019-07-21 01:00:00 24.8 2 Este 7 Este 0 -- -- 86
2019-07-21 00:00:00 25.1 0 Calma 7 Este 0 -- -- 86